Time;durP1;ratioP1;P1;durP2;ratioP2;P2;SDS_P1;SDS_P2;PMS_P1;PMS_P2;Temp;Humidity;BMP_temperature;BMP_pressure;BME280_temperature;BME280_humidity;BME280_pressure;Samples;Min_cycle;Max_cycle;Signal;HPM_P1;HPM_P2
2021/12/04 00:00:48;;;;;;;47.97;27.45;;;;;;;;;;4953726;28;20776;-35
2021/12/04 00:03:15;;;;;;;58.72;29.70;;;;;;;;;;4956353;28;20525;-37
2021/12/04 00:05:47;;;;;;;52.60;28.13;;;;;;;;;;4949100;28;20045;-37
2021/12/04 00:08:13;;;;;;;53.67;31.35;;;;;;;;;;4953522;28;20410;-36
2021/12/04 00:10:39;;;;;;;51.33;28.55;;;;;;;;;;4951453;29;20053;-35
2021/12/04 00:13:05;;;;;;;56.15;29.58;;;;;;;;;;4952086;29;20034;-36
2021/12/04 00:15:31;;;;;;;60.88;31.33;;;;;;;;;;4956811;28;20390;-36
2021/12/04 00:17:59;;;;;;;57.35;32.10;;;;;;;;;;4954003;28;20051;-36
2021/12/04 00:20:27;;;;;;;56.90;31.17;;;;;;;;;;4959304;28;20332;-35
2021/12/04 00:22:56;;;;;;;58.60;29.40;;;;;;;;;;4958763;28;20027;-35
2021/12/04 00:25:22;;;;;;;58.58;30.38;;;;;;;;;;4951863;28;20042;-37
2021/12/04 00:27:48;;;;;;;59.80;32.88;;;;;;;;;;4959082;28;20027;-35
2021/12/04 00:30:14;;;;;;;52.97;30.83;;;;;;;;;;4951658;28;20069;-35
2021/12/04 00:32:42;;;;;;;50.25;29.80;;;;;;;;;;4964953;28;20051;-36
2021/12/04 00:35:18;;;;;;;54.33;29.95;;;;;;;;;;4951799;28;20038;-35
2021/12/04 00:37:59;;;;;;;56.70;30.15;;;;;;;;;;4957085;28;20038;-36
2021/12/04 00:51:14;;;;;;;57.15;29.73;;;;;;;;;;4954274;28;20049;-36
2021/12/04 00:53:40;;;;;;;54.72;30.08;;;;;;;;;;4964397;28;20023;-35
2021/12/04 00:56:06;;;;;;;56.72;31.77;;;;;;;;;;4959501;28;20034;-35
2021/12/04 00:58:32;;;;;;;55.67;30.75;;;;;;;;;;4964295;28;20035;-37
2021/12/04 01:00:59;;;;;;;60.88;31.20;;;;;;;;;;4959395;28;20035;-35
2021/12/04 01:03:25;;;;;;;58.85;32.15;;;;;;;;;;4955671;28;20114;-36
2021/12/04 01:05:51;;;;;;;63.90;32.55;;;;;;;;;;4954066;28;20114;-36
2021/12/04 01:08:17;;;;;;;65.28;33.50;;;;;;;;;;4955243;28;20422;-37
2021/12/04 01:10:43;;;;;;;98.07;45.35;;;;;;;;;;4959865;28;20552;-36
2021/12/04 01:13:12;;;;;;;73.13;37.78;;;;;;;;;;4968297;28;20031;-36
2021/12/04 01:15:39;;;;;;;67.47;34.53;;;;;;;;;;4959963;28;20034;-36
2021/12/04 01:18:05;;;;;;;67.80;34.10;;;;;;;;;;4960764;28;20019;-36
2021/12/04 01:20:31;;;;;;;63.17;32.90;;;;;;;;;;4970695;28;20026;-37
2021/12/04 01:22:57;;;;;;;62.47;33.78;;;;;;;;;;4967226;28;20035;-39
2021/12/04 01:25:23;;;;;;;64.70;32.47;;;;;;;;;;4958508;28;20082;-35
2021/12/04 01:27:49;;;;;;;66.57;34.28;;;;;;;;;;4955274;28;20418;-35
2021/12/04 01:30:15;;;;;;;64.60;34.08;;;;;;;;;;4954998;28;20486;-36
2021/12/04 01:32:41;;;;;;;71.10;34.65;;;;;;;;;;4963903;28;20031;-36
2021/12/04 01:35:07;;;;;;;75.55;35.88;;;;;;;;;;4962628;28;20085;-36
2021/12/04 01:37:33;;;;;;;61.10;32.63;;;;;;;;;;4963982;28;20078;-35
2021/12/04 01:39:59;;;;;;;70.32;33.00;;;;;;;;;;4959965;28;20426;-35
2021/12/04 01:42:25;;;;;;;60.63;30.50;;;;;;;;;;4961797;28;20082;-36
2021/12/04 01:44:52;;;;;;;57.00;29.60;;;;;;;;;;4956726;28;20063;-36
2021/12/04 01:47:20;;;;;;;62.75;31.60;;;;;;;;;;4955709;28;20035;-38
2021/12/04 01:49:48;;;;;;;61.95;31.38;;;;;;;;;;4948269;28;20031;-36
2021/12/04 01:52:15;;;;;;;63.28;30.23;;;;;;;;;;4953856;28;20023;-36
2021/12/04 01:54:41;;;;;;;56.38;29.52;;;;;;;;;;4954153;28;20035;-35
2021/12/04 01:57:07;;;;;;;55.50;29.20;;;;;;;;;;4950211;28;20436;-35
2021/12/04 01:59:33;;;;;;;50.95;28.25;;;;;;;;;;4956810;28;20063;-35
2021/12/04 02:02:00;;;;;;;53.75;28.85;;;;;;;;;;4949409;28;20027;-35
2021/12/04 02:04:26;;;;;;;50.75;27.25;;;;;;;;;;4955085;28;20099;-36
2021/12/04 02:06:52;;;;;;;58.58;30.27;;;;;;;;;;4947291;28;20087;-36
2021/12/04 02:09:18;;;;;;;61.78;29.77;;;;;;;;;;4951134;28;20042;-35
2021/12/04 02:11:45;;;;;;;52.78;27.48;;;;;;;;;;4952424;28;20043;-35
2021/12/04 02:14:13;;;;;;;57.13;30.90;;;;;;;;;;4950802;28;21387;-34
2021/12/04 02:16:39;;;;;;;52.40;29.48;;;;;;;;;;4994957;23;20128;-34
2021/12/04 02:19:05;;;;;;;59.20;31.27;;;;;;;;;;4989988;28;20037;-35
2021/12/04 02:21:32;;;;;;;56.22;32.13;;;;;;;;;;4992999;28;20026;-35
2021/12/04 02:23:58;;;;;;;60.78;32.53;;;;;;;;;;4994518;28;20018;-35
2021/12/04 02:26:24;;;;;;;60.33;31.85;;;;;;;;;;4991887;28;20026;-35
2021/12/04 02:28:50;;;;;;;60.25;33.30;;;;;;;;;;4992486;28;20041;-34
2021/12/04 02:31:17;;;;;;;65.80;33.50;;;;;;;;;;5000818;28;20026;-35
2021/12/04 02:33:43;;;;;;;58.80;30.85;;;;;;;;;;4991663;28;20461;-34
2021/12/04 02:36:09;;;;;;;67.03;34.13;;;;;;;;;;4990947;28;20065;-35
2021/12/04 02:38:36;;;;;;;69.80;33.95;;;;;;;;;;4990794;28;20018;-37
2021/12/04 02:41:03;;;;;;;69.53;32.60;;;;;;;;;;4993204;28;20030;-37
2021/12/04 02:43:32;;;;;;;70.05;36.08;;;;;;;;;;4992388;28;20088;-35
2021/12/04 02:45:58;;;;;;;70.47;36.08;;;;;;;;;;4991836;28;20089;-37
2021/12/04 02:48:24;;;;;;;62.28;31.98;;;;;;;;;;4991495;28;20081;-37
2021/12/04 02:50:50;;;;;;;63.55;32.10;;;;;;;;;;4991991;28;20107;-37
2021/12/04 02:53:17;;;;;;;64.18;31.38;;;;;;;;;;4992148;28;20149;-36
2021/12/04 02:55:45;;;;;;;64.55;32.47;;;;;;;;;;4992150;28;20120;-35
2021/12/04 02:58:13;;;;;;;69.72;33.40;;;;;;;;;;4991600;28;20022;-35
2021/12/04 03:00:46;;;;;;;61.35;31.88;;;;;;;;;;4990401;28;20034;-35
2021/12/04 03:03:12;;;;;;;60.30;30.88;;;;;;;;;;4992062;28;20026;-40
2021/12/04 03:05:38;;;;;;;66.55;33.05;;;;;;;;;;4990032;28;20027;-34
2021/12/04 03:08:06;;;;;;;63.28;32.53;;;;;;;;;;4991065;28;20084;-35
2021/12/04 03:10:33;;;;;;;68.00;33.42;;;;;;;;;;4992048;28;20027;-38
2021/12/04 03:12:59;;;;;;;59.25;30.80;;;;;;;;;;4991165;28;20040;-34
2021/12/04 03:15:25;;;;;;;59.60;31.08;;;;;;;;;;4991290;28;20089;-35
2021/12/04 03:17:51;;;;;;;64.82;33.28;;;;;;;;;;4991805;28;20023;-34
2021/12/04 03:20:18;;;;;;;57.90;29.60;;;;;;;;;;4990920;28;20482;-38
2021/12/04 03:22:46;;;;;;;65.32;32.38;;;;;;;;;;4990172;28;20034;-39
2021/12/04 03:25:15;;;;;;;63.97;31.98;;;;;;;;;;4990488;28;22035;-38
2021/12/04 03:27:45;;;;;;;67.90;31.50;;;;;;;;;;4990042;28;20019;-34
2021/12/04 03:30:24;;;;;;;60.63;31.15;;;;;;;;;;4991117;28;20026;-36
2021/12/04 03:41:07;;;;;;;61.65;30.70;;;;;;;;;;4985655;28;20093;-38
2021/12/04 03:43:33;;;;;;;65.20;30.60;;;;;;;;;;4991426;28;20049;-37
2021/12/04 03:46:03;;;;;;;62.80;31.20;;;;;;;;;;4991029;28;20100;-36
2021/12/04 03:50:57;;;;;;;59.40;28.42;;;;;;;;;;4990899;28;20069;-38
2021/12/04 03:53:23;;;;;;;51.15;27.23;;;;;;;;;;4982428;28;20035;-36
2021/12/04 03:55:50;;;;;;;61.90;30.20;;;;;;;;;;4987063;28;20034;-36
2021/12/04 03:58:16;;;;;;;57.55;26.83;;;;;;;;;;4992605;28;20029;-35
2021/12/04 04:00:42;;;;;;;49.45;26.23;;;;;;;;;;4990850;28;20568;-34
2021/12/04 04:03:08;;;;;;;50.25;26.08;;;;;;;;;;4992242;28;20113;-35
2021/12/04 04:05:34;;;;;;;51.80;25.58;;;;;;;;;;4990938;28;20030;-36
2021/12/04 04:08:00;;;;;;;50.28;24.05;;;;;;;;;;4991867;28;20058;-39
2021/12/04 04:10:27;;;;;;;51.55;25.77;;;;;;;;;;4989830;28;20081;-38
2021/12/04 04:12:54;;;;;;;47.47;25.30;;;;;;;;;;4991077;28;20157;-35
2021/12/04 04:15:21;;;;;;;52.38;25.25;;;;;;;;;;4990209;28;20065;-35
2021/12/04 04:17:47;;;;;;;52.15;25.73;;;;;;;;;;4991782;28;20023;-35
2021/12/04 04:20:15;;;;;;;48.08;23.77;;;;;;;;;;4984077;28;20022;-40
2021/12/04 04:22:42;;;;;;;52.65;24.25;;;;;;;;;;4991591;28;20457;-39
2021/12/04 04:25:09;;;;;;;52.00;25.85;;;;;;;;;;4988873;28;20018;-36
2021/12/04 04:27:35;;;;;;;60.30;29.38;;;;;;;;;;4991061;28;20103;-34
2021/12/04 04:30:01;;;;;;;55.83;27.13;;;;;;;;;;4989151;28;20058;-35
2021/12/04 04:32:28;;;;;;;59.83;29.30;;;;;;;;;;4990837;28;20076;-35
2021/12/04 04:34:56;;;;;;;55.10;27.33;;;;;;;;;;4987347;28;20085;-40
2021/12/04 04:37:32;;;;;;;58.03;29.27;;;;;;;;;;4989566;28;20055;-35
2021/12/04 04:59:45;;;;;;;66.60;31.83;;;;;;;;;;4990627;28;20513;-36
2021/12/04 05:10:19;;;;;;;76.68;32.33;;;;;;;;;;4988670;28;20038;-35
2021/12/04 05:13:17;;;;;;;71.47;32.13;;;;;;;;;;4989841;28;20500;-35
2021/12/04 05:21:04;;;;;;;77.65;32.67;;;;;;;;;;4987344;28;20038;-35
2021/12/04 05:23:38;;;;;;;83.40;33.22;;;;;;;;;;4989011;28;20730;-39
2021/12/04 05:26:05;;;;;;;75.78;32.20;;;;;;;;;;4993880;28;20052;-36
2021/12/04 05:28:31;;;;;;;84.53;34.45;;;;;;;;;;4991950;28;20087;-38
2021/12/04 05:30:57;;;;;;;71.78;31.33;;;;;;;;;;4993721;28;20068;-35
2021/12/04 05:33:24;;;;;;;74.72;31.95;;;;;;;;;;4993126;28;20377;-39
2021/12/04 05:35:50;;;;;;;78.55;31.75;;;;;;;;;;4993473;28;20030;-37
2021/12/04 05:38:16;;;;;;;75.63;31.60;;;;;;;;;;4993118;28;20031;-37
2021/12/04 05:40:43;;;;;;;67.97;29.77;;;;;;;;;;4991604;28;20101;-37
2021/12/04 05:43:09;;;;;;;73.53;31.98;;;;;;;;;;4989963;28;20038;-36
2021/12/04 05:45:40;;;;;;;72.25;29.42;;;;;;;;;;4993100;28;20045;-37
2021/12/04 05:48:11;;;;;;;72.13;29.10;;;;;;;;;;4992340;28;20037;-37
2021/12/04 05:53:40;;;;;;;63.92;28.27;;;;;;;;;;4990161;28;20027;-37
2021/12/04 05:56:06;;;;;;;59.60;25.08;;;;;;;;;;4990388;28;20038;-37
2021/12/04 05:58:33;;;;;;;60.65;24.75;;;;;;;;;;4996461;28;20058;-37
2021/12/04 06:01:00;;;;;;;53.25;24.25;;;;;;;;;;4993433;28;20089;-37
2021/12/04 06:03:26;;;;;;;54.17;24.55;;;;;;;;;;4991994;28;20050;-38
2021/12/04 06:05:53;;;;;;;54.03;23.80;;;;;;;;;;4993159;28;20065;-37
2021/12/04 06:08:19;;;;;;;55.15;24.77;;;;;;;;;;4991660;28;20050;-37
2021/12/04 06:10:45;;;;;;;51.90;24.20;;;;;;;;;;4992530;28;20025;-37
2021/12/04 06:13:12;;;;;;;50.40;24.67;;;;;;;;;;4990765;28;20030;-37
2021/12/04 06:15:38;;;;;;;43.63;23.27;;;;;;;;;;4989557;28;20113;-38
2021/12/04 06:18:04;;;;;;;47.50;21.50;;;;;;;;;;4989348;28;20018;-37
2021/12/04 06:23:16;;;;;;;47.03;21.13;;;;;;;;;;4993583;28;20172;-37
2021/12/04 06:25:42;;;;;;;45.70;22.30;;;;;;;;;;4992649;28;20382;-37
2021/12/04 06:28:09;;;;;;;49.92;22.55;;;;;;;;;;4990525;28;20034;-37
2021/12/04 06:30:37;;;;;;;54.15;22.90;;;;;;;;;;4991590;28;20396;-38
2021/12/04 06:33:04;;;;;;;50.83;24.33;;;;;;;;;;4992814;28;20018;-36
2021/12/04 06:35:31;;;;;;;49.33;22.85;;;;;;;;;;4990731;28;20034;-38
2021/12/04 06:37:57;;;;;;;52.47;23.58;;;;;;;;;;4992541;28;20485;-36
2021/12/04 06:40:26;;;;;;;52.67;24.55;;;;;;;;;;4991548;28;20113;-38
2021/12/04 06:42:53;;;;;;;55.95;24.42;;;;;;;;;;4993142;28;20540;-38
2021/12/04 06:45:19;;;;;;;58.72;26.33;;;;;;;;;;4991622;28;20073;-37
2021/12/04 06:47:51;;;;;;;56.88;24.83;;;;;;;;;;4992258;28;20023;-38
2021/12/04 06:50:31;;;;;;;66.03;26.02;;;;;;;;;;4994075;28;20022;-37
2021/12/04 06:53:01;;;;;;;57.80;23.83;;;;;;;;;;4991368;28;20074;-37
2021/12/04 06:55:30;;;;;;;72.97;25.85;;;;;;;;;;4991054;28;20428;-37
2021/12/04 06:57:56;;;;;;;63.58;25.77;;;;;;;;;;4992401;28;20133;-36
2021/12/04 07:00:25;;;;;;;64.30;26.17;;;;;;;;;;4991120;28;20063;-38
2021/12/04 07:02:51;;;;;;;69.43;26.45;;;;;;;;;;4990695;28;20034;-34
2021/12/04 07:05:17;;;;;;;60.25;24.58;;;;;;;;;;4991019;28;20041;-36
2021/12/04 07:07:43;;;;;;;68.20;25.23;;;;;;;;;;4992264;28;20109;-35
2021/12/04 07:10:09;;;;;;;63.67;25.02;;;;;;;;;;4989591;28;20532;-36
2021/12/04 07:12:35;;;;;;;60.30;25.95;;;;;;;;;;4991391;28;20070;-35
2021/12/04 07:15:01;;;;;;;76.32;27.48;;;;;;;;;;4989906;28;20473;-35
2021/12/04 07:17:27;;;;;;;63.22;26.17;;;;;;;;;;4989939;28;20054;-35
2021/12/04 07:19:53;;;;;;;62.78;25.83;;;;;;;;;;4990890;28;20030;-34
2021/12/04 07:22:19;;;;;;;70.70;27.23;;;;;;;;;;4990574;28;20497;-36
2021/12/04 07:24:45;;;;;;;69.68;26.30;;;;;;;;;;4990132;28;20109;-35
2021/12/04 07:27:11;;;;;;;57.75;26.58;;;;;;;;;;4987507;28;20408;-36
2021/12/04 07:29:37;;;;;;;70.97;26.60;;;;;;;;;;4989923;28;20031;-36
2021/12/04 07:32:03;;;;;;;64.28;27.33;;;;;;;;;;4987603;28;20462;-36
2021/12/04 07:34:29;;;;;;;73.90;25.92;;;;;;;;;;4985101;28;20029;-36
2021/12/04 07:36:55;;;;;;;60.45;24.58;;;;;;;;;;4988646;28;20042;-36
2021/12/04 07:39:21;;;;;;;55.50;23.80;;;;;;;;;;4986684;28;20085;-36
2021/12/04 07:41:47;;;;;;;61.00;24.75;;;;;;;;;;4987075;28;20586;-36
2021/12/04 07:44:13;;;;;;;55.22;23.52;;;;;;;;;;4986355;28;20058;-36
2021/12/04 07:46:40;;;;;;;56.30;24.23;;;;;;;;;;4986230;28;20034;-37
2021/12/04 07:49:06;;;;;;;68.15;24.23;;;;;;;;;;4987080;28;20429;-37
2021/12/04 07:51:33;;;;;;;60.60;23.95;;;;;;;;;;4987376;28;20477;-35
2021/12/04 07:53:59;;;;;;;62.28;23.88;;;;;;;;;;4988911;28;20036;-35
2021/12/04 07:56:25;;;;;;;60.08;25.02;;;;;;;;;;4997445;28;20022;-35
2021/12/04 07:58:51;;;;;;;71.10;25.55;;;;;;;;;;4990055;28;20022;-35
2021/12/04 08:01:17;;;;;;;61.50;23.73;;;;;;;;;;4987887;28;20029;-35
2021/12/04 08:03:43;;;;;;;69.05;24.83;;;;;;;;;;4989296;28;20046;-35
2021/12/04 08:06:09;;;;;;;60.08;25.15;;;;;;;;;;4988471;28;20066;-35
2021/12/04 08:08:35;;;;;;;60.42;23.48;;;;;;;;;;4992021;28;20026;-36
2021/12/04 08:11:03;;;;;;;66.00;24.83;;;;;;;;;;4989348;28;20034;-36
2021/12/04 08:13:30;;;;;;;53.15;22.00;;;;;;;;;;4991323;28;20076;-36
2021/12/04 08:15:56;;;;;;;52.25;22.90;;;;;;;;;;5018878;22;20060;-39
2021/12/04 08:18:22;;;;;;;53.33;23.67;;;;;;;;;;4994424;28;20030;-39
2021/12/04 08:20:48;;;;;;;51.45;22.65;;;;;;;;;;5005736;28;20018;-39
2021/12/04 08:23:14;;;;;;;51.47;20.88;;;;;;;;;;5002447;28;20034;-39
2021/12/04 08:25:40;;;;;;;46.13;20.83;;;;;;;;;;5006522;28;20049;-40
2021/12/04 08:28:06;;;;;;;45.90;20.90;;;;;;;;;;5011934;28;20045;-40
2021/12/04 08:30:36;;;;;;;44.15;21.42;;;;;;;;;;5010534;28;20057;-40
2021/12/04 08:33:02;;;;;;;51.05;21.33;;;;;;;;;;5012199;28;20022;-40
2021/12/04 08:35:31;;;;;;;50.63;21.35;;;;;;;;;;5010127;28;20115;-40
2021/12/04 08:37:58;;;;;;;40.95;20.20;;;;;;;;;;5015490;28;20113;-40
2021/12/04 08:40:25;;;;;;;39.00;19.27;;;;;;;;;;5008437;28;20377;-40
2021/12/04 08:42:51;;;;;;;42.17;21.05;;;;;;;;;;5017988;28;20025;-40
2021/12/04 08:45:18;;;;;;;39.95;19.30;;;;;;;;;;5016817;28;20441;-40
2021/12/04 08:47:44;;;;;;;42.65;19.88;;;;;;;;;;5001931;28;20070;-39
2021/12/04 08:50:11;;;;;;;43.60;20.58;;;;;;;;;;5007163;28;20542;-38
2021/12/04 08:52:38;;;;;;;44.08;20.58;;;;;;;;;;5008952;28;20058;-40
2021/12/04 08:55:05;;;;;;;55.92;22.55;;;;;;;;;;5009687;28;20018;-40
2021/12/04 08:57:31;;;;;;;49.45;21.23;;;;;;;;;;5006100;28;20091;-40
2021/12/04 08:59:57;;;;;;;45.15;20.67;;;;;;;;;;5012387;28;20026;-40
2021/12/04 09:02:23;;;;;;;51.00;21.05;;;;;;;;;;5012139;28;20116;-41
2021/12/04 09:04:50;;;;;;;46.72;21.67;;;;;;;;;;5013130;28;20053;-39
2021/12/04 09:07:18;;;;;;;53.25;21.42;;;;;;;;;;5012835;28;20473;-40
2021/12/04 09:09:45;;;;;;;50.03;23.02;;;;;;;;;;5004366;28;20141;-40
2021/12/04 09:12:11;;;;;;;51.45;22.75;;;;;;;;;;5011765;28;20032;-40
2021/12/04 09:14:39;;;;;;;55.05;23.95;;;;;;;;;;5013430;28;20057;-40
2021/12/04 09:17:07;;;;;;;51.75;23.15;;;;;;;;;;5010698;28;20021;-41
2021/12/04 09:19:33;;;;;;;53.33;24.15;;;;;;;;;;5009883;28;20108;-40
2021/12/04 09:21:59;;;;;;;57.65;23.30;;;;;;;;;;5010662;28;20061;-39
2021/12/04 09:24:29;;;;;;;51.83;22.50;;;;;;;;;;5012443;28;20029;-41
2021/12/04 09:59:10;;;;;;;48.03;22.55;;;;;;;;;;5010893;28;20212;-41
2021/12/04 10:05:05;;;;;;;42.03;21.50;;;;;;;;;;5012429;28;20034;-39
2021/12/04 10:21:34;;;;;;;37.60;20.45;;;;;;;;;;5007363;28;20409;-41
2021/12/04 10:24:14;;;;;;;37.88;20.67;;;;;;;;;;5006981;28;20033;-41
2021/12/04 10:32:09;;;;;;;38.97;20.52;;;;;;;;;;5014020;28;20109;-41
2021/12/04 10:34:48;;;;;;;41.97;19.45;;;;;;;;;;5015710;28;20079;-41
2021/12/04 10:37:24;;;;;;;35.90;18.85;;;;;;;;;;5007936;28;20041;-41
2021/12/04 10:39:51;;;;;;;37.17;19.40;;;;;;;;;;5009462;28;20033;-41
2021/12/04 10:42:21;;;;;;;43.40;19.60;;;;;;;;;;5011193;28;20014;-40
2021/12/04 10:44:51;;;;;;;33.03;19.13;;;;;;;;;;5005734;28;20107;-39
2021/12/04 10:47:26;;;;;;;32.58;18.02;;;;;;;;;;5009742;28;20026;-41
2021/12/04 10:52:24;;;;;;;36.25;19.23;;;;;;;;;;5008352;28;20221;-40
2021/12/04 10:54:54;;;;;;;36.13;19.83;;;;;;;;;;5014073;28;20045;-41
2021/12/04 10:57:54;;;;;;;43.95;19.88;;;;;;;;;;5012262;28;20030;-40
2021/12/04 11:00:37;;;;;;;30.98;17.95;;;;;;;;;;5011936;28;20738;-41
2021/12/04 11:03:18;;;;;;;32.95;18.65;;;;;;;;;;4994049;28;20026;-41
2021/12/04 11:25:13;;;;;;;32.13;17.63;;;;;;;;;;5016806;28;20473;-41
2021/12/04 11:38:52;;;;;;;32.13;19.00;;;;;;;;;;5018844;28;20038;-40
2021/12/04 11:46:23;;;;;;;34.58;18.85;;;;;;;;;;5019953;28;20026;-41
2021/12/04 11:48:49;;;;;;;30.05;17.52;;;;;;;;;;5011559;28;20037;-41
2021/12/04 11:51:23;;;;;;;33.83;17.88;;;;;;;;;;5010854;28;20058;-41
2021/12/04 11:53:50;;;;;;;25.20;16.45;;;;;;;;;;5005393;28;20038;-40
2021/12/04 11:56:23;;;;;;;31.17;17.70;;;;;;;;;;5009723;28;20358;-41
2021/12/04 11:58:50;;;;;;;27.38;16.08;;;;;;;;;;5003658;28;20022;-41
2021/12/04 12:01:21;;;;;;;27.55;16.40;;;;;;;;;;5012287;28;20068;-40
2021/12/04 12:03:52;;;;;;;29.00;15.70;;;;;;;;;;5012837;28;20053;-41
2021/12/04 12:06:27;;;;;;;24.90;15.13;;;;;;;;;;5011579;28;20441;-40
2021/12/04 12:08:59;;;;;;;24.83;15.63;;;;;;;;;;5020909;28;20083;-40
2021/12/04 12:11:27;;;;;;;23.00;15.05;;;;;;;;;;5012865;28;20035;-40
2021/12/04 12:13:58;;;;;;;35.78;17.70;;;;;;;;;;5003913;28;20389;-40
2021/12/04 12:16:27;;;;;;;23.95;14.45;;;;;;;;;;5011977;28;20039;-40
2021/12/04 12:19:01;;;;;;;26.98;15.82;;;;;;;;;;5016969;28;20416;-41
2021/12/04 12:21:33;;;;;;;25.63;14.80;;;;;;;;;;5011613;28;20499;-40
2021/12/04 12:33:06;;;;;;;20.45;12.95;;;;;;;;;;5015443;28;20040;-40
2021/12/04 12:38:33;;;;;;;17.92;10.63;;;;;;;;;;5008085;28;20053;-40
2021/12/04 12:41:02;;;;;;;21.75;11.63;;;;;;;;;;5008108;28;20046;-41
2021/12/04 12:43:41;;;;;;;17.35;11.02;;;;;;;;;;5010038;28;20030;-41
2021/12/04 12:46:07;;;;;;;17.05;11.10;;;;;;;;;;5009638;28;20029;-40
2021/12/04 12:48:52;;;;;;;17.45;10.73;;;;;;;;;;5010438;28;20061;-41
2021/12/04 12:51:28;;;;;;;19.15;12.15;;;;;;;;;;5006249;28;20141;-41
2021/12/04 12:53:55;;;;;;;15.70;11.25;;;;;;;;;;5010057;28;20026;-40
2021/12/04 12:56:22;;;;;;;21.23;11.60;;;;;;;;;;5009434;28;20038;-40
2021/12/04 13:12:46;;;;;;;19.75;11.85;;;;;;;;;;5010155;28;20366;-41
2021/12/04 13:15:12;;;;;;;15.40;10.68;;;;;;;;;;5006176;28;20037;-41
2021/12/04 13:17:40;;;;;;;20.77;11.38;;;;;;;;;;5005157;28;20040;-41
2021/12/04 13:20:06;;;;;;;16.65;11.13;;;;;;;;;;5005800;28;20045;-40
2021/12/04 13:22:34;;;;;;;16.55;10.60;;;;;;;;;;5010912;28;21357;-41
2021/12/04 13:25:04;;;;;;;15.57;10.80;;;;;;;;;;5010858;28;20022;-40
2021/12/04 13:29:57;;;;;;;17.60;10.73;;;;;;;;;;5008078;28;20038;-41
2021/12/04 13:32:35;;;;;;;17.15;10.73;;;;;;;;;;5011167;28;20034;-41
2021/12/04 13:35:03;;;;;;;17.05;9.77;;;;;;;;;;5008453;28;20053;-41
2021/12/04 13:37:30;;;;;;;13.48;9.23;;;;;;;;;;5006235;28;20046;-40
2021/12/04 13:39:57;;;;;;;17.95;10.52;;;;;;;;;;5008977;28;20014;-40
2021/12/04 13:42:24;;;;;;;16.17;10.82;;;;;;;;;;5009465;28;20432;-41
2021/12/04 13:44:50;;;;;;;15.57;10.65;;;;;;;;;;5009623;28;20025;-40
2021/12/04 13:47:16;;;;;;;15.40;10.95;;;;;;;;;;5013148;28;20180;-40
2021/12/04 13:49:57;;;;;;;17.95;11.95;;;;;;;;;;5012712;28;20021;-41
2021/12/04 13:52:24;;;;;;;19.33;11.93;;;;;;;;;;5009658;28;20492;-40
2021/12/04 13:54:52;;;;;;;22.45;12.43;;;;;;;;;;5004714;28;20032;-40
2021/12/04 13:57:18;;;;;;;20.75;12.38;;;;;;;;;;5010052;28;20033;-41
2021/12/04 13:59:45;;;;;;;18.88;11.80;;;;;;;;;;5012727;28;20372;-39
2021/12/04 14:02:21;;;;;;;21.08;12.07;;;;;;;;;;5012388;28;20022;-40
2021/12/04 14:04:54;;;;;;;17.95;11.10;;;;;;;;;;5012900;28;20061;-41
2021/12/04 14:07:20;;;;;;;18.80;11.27;;;;;;;;;;5010027;28;20152;-40
2021/12/04 14:09:46;;;;;;;23.77;11.95;;;;;;;;;;5011809;28;20057;-41
2021/12/04 14:12:12;;;;;;;17.48;11.75;;;;;;;;;;5013591;28;20059;-40
2021/12/04 14:14:38;;;;;;;18.50;11.35;;;;;;;;;;5013780;28;20079;-41
2021/12/04 14:17:07;;;;;;;20.85;11.65;;;;;;;;;;5037446;23;20042;-36
2021/12/04 14:19:33;;;;;;;17.05;11.15;;;;;;;;;;5020881;28;20091;-38
2021/12/04 14:22:04;;;;;;;17.38;11.85;;;;;;;;;;5022654;28;20457;-36
2021/12/04 14:24:30;;;;;;;20.00;11.18;;;;;;;;;;5018623;28;20021;-35
2021/12/04 14:26:57;;;;;;;20.00;11.85;;;;;;;;;;5015001;28;20049;-36
2021/12/04 14:29:26;;;;;;;18.95;12.43;;;;;;;;;;5012105;28;20086;-34
2021/12/04 14:31:53;;;;;;;17.30;10.88;;;;;;;;;;5012337;28;20252;-34
2021/12/04 14:34:24;;;;;;;18.05;11.55;;;;;;;;;;5010511;28;20026;-34
2021/12/04 14:37:09;;;;;;;19.20;11.98;;;;;;;;;;5011302;28;20682;-34
2021/12/04 14:39:35;;;;;;;17.53;11.83;;;;;;;;;;5012596;28;20030;-34
2021/12/04 14:42:09;;;;;;;18.23;10.60;;;;;;;;;;5012165;28;20041;-34
2021/12/04 14:44:36;;;;;;;18.17;10.50;;;;;;;;;;5014909;28;20030;-35
2021/12/04 14:47:04;;;;;;;16.70;11.45;;;;;;;;;;5011502;28;20061;-34
2021/12/04 14:49:30;;;;;;;19.48;11.07;;;;;;;;;;5009365;28;20034;-35
2021/12/04 14:51:56;;;;;;;18.27;11.30;;;;;;;;;;5011227;28;20025;-35
2021/12/04 14:54:32;;;;;;;21.58;11.43;;;;;;;;;;5011607;28;20030;-35
2021/12/04 14:56:59;;;;;;;;;;;;;;;;;;5007797;28;20110;-36
2021/12/04 14:59:25;;;;;;;18.60;11.60;;;;;;;;;;5008239;28;19932;-34
2021/12/04 15:01:51;;;;;;;20.75;12.48;;;;;;;;;;5011169;28;20029;-34
2021/12/04 15:04:17;;;;;;;21.17;12.23;;;;;;;;;;5007369;28;20030;-35
2021/12/04 15:06:43;;;;;;;23.17;13.30;;;;;;;;;;5009855;28;20066;-35
2021/12/04 15:09:14;;;;;;;20.40;12.02;;;;;;;;;;5007793;28;20022;-35
2021/12/04 15:11:48;;;;;;;19.42;11.98;;;;;;;;;;5009090;28;20115;-35
2021/12/04 15:14:20;;;;;;;21.35;13.15;;;;;;;;;;5007328;28;20038;-34
2021/12/04 15:16:51;;;;;;;22.38;12.25;;;;;;;;;;5007484;28;20061;-34
2021/12/04 15:19:21;;;;;;;21.23;11.50;;;;;;;;;;5008735;28;20360;-34
2021/12/04 15:21:56;;;;;;;15.95;11.48;;;;;;;;;;5009340;28;20033;-38
2021/12/04 15:24:49;;;;;;;17.60;10.75;;;;;;;;;;5007998;28;20018;-35
2021/12/04 15:27:20;;;;;;;21.27;11.52;;;;;;;;;;5006461;28;20386;-35
2021/12/04 15:29:48;;;;;;;17.65;11.70;;;;;;;;;;5009625;28;20037;-34
2021/12/04 15:32:15;;;;;;;21.20;12.65;;;;;;;;;;5008066;28;20028;-34
2021/12/04 15:34:48;;;;;;;19.27;12.18;;;;;;;;;;5009333;28;20064;-34
2021/12/04 15:37:25;;;;;;;17.73;12.18;;;;;;;;;;5006956;28;20740;-34
2021/12/04 15:39:51;;;;;;;19.95;12.65;;;;;;;;;;5011757;28;20477;-36
2021/12/04 15:44:57;;;;;;;22.05;12.85;;;;;;;;;;5021122;28;20042;-34
2021/12/04 15:47:32;;;;;;;28.40;12.45;;;;;;;;;;5004604;28;20034;-35
2021/12/04 15:50:22;;;;;;;17.95;12.52;;;;;;;;;;5008402;28;20488;-34
2021/12/04 15:53:00;;;;;;;23.15;14.07;;;;;;;;;;5011343;28;20153;-34
2021/12/04 15:55:36;;;;;;;19.77;12.88;;;;;;;;;;5011736;28;20022;-34
2021/12/04 15:58:14;;;;;;;21.70;13.02;;;;;;;;;;5009209;28;20018;-34
2021/12/04 16:01:03;;;;;;;20.85;13.15;;;;;;;;;;5006981;28;20018;-34
2021/12/04 16:03:29;;;;;;;19.17;12.90;;;;;;;;;;4998973;28;20037;-37
2021/12/04 16:05:57;;;;;;;21.65;14.60;;;;;;;;;;5015804;28;20097;-36
2021/12/04 16:08:26;;;;;;;23.42;15.20;;;;;;;;;;5007649;28;20061;-38
2021/12/04 16:10:52;;;;;;;25.67;14.35;;;;;;;;;;5008839;28;20030;-36
2021/12/04 16:13:23;;;;;;;23.00;13.95;;;;;;;;;;5007373;28;20025;-34
2021/12/04 16:15:49;;;;;;;22.77;13.40;;;;;;;;;;5010119;28;20037;-33
2021/12/04 16:18:16;;;;;;;23.02;14.27;;;;;;;;;;5007886;28;20028;-35
2021/12/04 16:20:45;;;;;;;21.80;13.32;;;;;;;;;;5005744;28;20026;-35
2021/12/04 16:23:13;;;;;;;21.70;13.65;;;;;;;;;;5007805;28;20022;-36
2021/12/04 16:25:40;;;;;;;22.77;12.45;;;;;;;;;;5008024;28;20396;-34
2021/12/04 16:35:56;;;;;;;31.52;16.70;;;;;;;;;;5007076;28;20061;-34
2021/12/04 16:38:22;;;;;;;;;;;;;;;;;;5008988;28;20026;-34
2021/12/04 16:40:49;;;;;;;31.42;15.10;;;;;;;;;;5009342;28;20448;-34
2021/12/04 16:43:19;;;;;;;28.65;15.15;;;;;;;;;;5006364;28;20037;-33
2021/12/04 16:45:51;;;;;;;28.48;14.45;;;;;;;;;;5006067;28;20417;-36
2021/12/04 16:48:18;;;;;;;30.27;15.15;;;;;;;;;;5005818;28;20033;-35
2021/12/04 16:58:32;;;;;;;33.47;15.57;;;;;;;;;;5004342;28;20058;-34
2021/12/04 17:00:59;;;;;;;30.23;16.00;;;;;;;;;;5008785;28;20022;-34
2021/12/04 17:03:25;;;;;;;34.75;16.40;;;;;;;;;;5004902;28;20438;-35
2021/12/04 17:05:51;;;;;;;30.38;14.80;;;;;;;;;;5008222;28;20053;-35
2021/12/04 17:08:17;;;;;;;28.90;16.70;;;;;;;;;;5006385;28;20104;-35
2021/12/04 17:10:43;;;;;;;27.83;15.32;;;;;;;;;;5007660;28;20077;-33
2021/12/04 17:13:10;;;;;;;28.38;15.15;;;;;;;;;;5004842;28;20037;-34
2021/12/04 17:15:42;;;;;;;38.33;17.67;;;;;;;;;;5006825;28;20054;-35
2021/12/04 17:18:15;;;;;;;29.25;15.45;;;;;;;;;;4999833;28;20378;-35
2021/12/04 17:20:41;;;;;;;31.02;15.82;;;;;;;;;;5007153;28;20072;-33
2021/12/04 17:23:07;;;;;;;26.33;14.02;;;;;;;;;;5015183;28;20941;-33
2021/12/04 17:25:35;;;;;;;31.08;15.98;;;;;;;;;;5009016;28;20105;-34
2021/12/04 17:28:02;;;;;;;27.92;15.13;;;;;;;;;;5011682;28;20033;-34
2021/12/04 17:30:28;;;;;;;33.75;17.45;;;;;;;;;;5010989;28;20018;-34
2021/12/04 17:32:54;;;;;;;29.88;14.93;;;;;;;;;;5010674;28;20030;-34
2021/12/04 17:35:20;;;;;;;28.95;15.90;;;;;;;;;;5011188;28;20033;-34
2021/12/04 17:37:49;;;;;;;29.73;14.85;;;;;;;;;;5009755;28;20061;-34
2021/12/04 17:40:15;;;;;;;28.08;14.20;;;;;;;;;;5010679;28;20018;-34
2021/12/04 17:42:42;;;;;;;22.73;13.25;;;;;;;;;;5012548;28;20026;-34
2021/12/04 17:45:09;;;;;;;22.08;13.95;;;;;;;;;;5015369;28;20084;-35